Time;durP1;ratioP1;P1;durP2;ratioP2;P2;SDS_P1;SDS_P2;PMS_P1;PMS_P2;Temp;Humidity;BMP_temperature;BMP_pressure;BME280_temperature;BME280_humidity;BME280_pressure;Samples;Min_cycle;Max_cycle;Signal;HPM_P1;HPM_P2
2022/05/24 00:00:52;;;;;;;20.23;11.15;;;;;;;22.36;51.28;100139.75;5083093;28;20048;-54
2022/05/24 00:03:20;;;;;;;15.93;10.77;;;;;;;22.36;51.17;100126.25;5085657;28;20142;-53
2022/05/24 00:05:48;;;;;;;17.13;10.68;;;;;;;22.37;51.20;100127.06;5085068;28;20194;-52
2022/05/24 00:08:15;;;;;;;15.95;10.40;;;;;;;22.36;51.43;100117.31;5083432;28;20079;-51
2022/05/24 00:10:42;;;;;;;17.65;11.02;;;;;;;22.36;51.29;100117.31;5086163;28;20449;-52
2022/05/24 00:13:11;;;;;;;17.20;10.95;;;;;;;22.35;51.33;100116.47;5088996;28;20055;-52
2022/05/24 00:15:39;;;;;;;14.98;10.20;;;;;;;22.36;51.34;100106.50;5088233;28;20048;-53
2022/05/24 00:18:18;;;;;;;14.90;10.45;;;;;;;22.34;51.30;100103.16;5086876;28;20050;-53
2022/05/24 00:20:48;;;;;;;15.48;10.02;;;;;;;22.33;51.38;100112.31;5090551;28;20258;-52
2022/05/24 00:23:16;;;;;;;14.82;10.15;;;;;;;22.33;51.34;100115.84;5091580;28;20106;-52
2022/05/24 00:25:45;;;;;;;15.30;10.30;;;;;;;22.33;51.45;100118.53;5088591;28;20054;-53
2022/05/24 00:28:16;;;;;;;17.17;9.55;;;;;;;22.33;51.23;100117.69;5090894;28;20318;-52
2022/05/24 00:30:46;;;;;;;12.60;8.77;;;;;;;22.31;51.54;100117.06;5088387;28;20090;-53
2022/05/24 00:33:14;;;;;;;14.75;9.77;;;;;;;22.31;51.55;100119.75;5087817;28;20161;-52
2022/05/24 00:35:42;;;;;;;13.93;9.18;;;;;;;22.29;51.29;100128.06;5090422;28;20121;-53
2022/05/24 00:38:11;;;;;;;12.55;8.30;;;;;;;22.29;51.42;100125.38;5087479;28;20040;-53
2022/05/24 00:41:12;;;;;;;12.50;8.40;;;;;;;22.26;51.23;100131.16;5087039;28;20036;-54
2022/05/24 00:43:45;;;;;;;11.40;8.18;;;;;;;22.28;51.47;100139.91;5088472;28;20051;-53
2022/05/24 00:46:23;;;;;;;13.25;8.57;;;;;;;22.28;51.37;100136.38;5086702;28;20036;-53
2022/05/24 00:49:02;;;;;;;11.95;8.18;;;;;;;22.28;51.25;100120.19;5088153;28;20064;-53
2022/05/24 00:51:34;;;;;;;12.77;8.35;;;;;;;22.27;51.29;100124.75;5082754;28;20106;-53
2022/05/24 00:54:01;;;;;;;11.88;7.85;;;;;;;22.26;51.37;100119.53;5074941;28;20423;-54
2022/05/24 00:56:58;;;;;;;16.95;8.80;;;;;;;22.24;51.31;100125.13;5077399;28;20040;-52
2022/05/24 00:59:33;;;;;;;13.75;8.68;;;;;;;22.26;51.29;100108.72;5084673;28;20415;-53
2022/05/24 01:02:00;;;;;;;12.45;7.93;;;;;;;22.25;51.54;100109.75;5086810;28;20048;-54
2022/05/24 01:04:26;;;;;;;11.75;8.13;;;;;;;22.23;51.58;100112.69;5089876;28;20130;-53
2022/05/24 01:06:53;;;;;;;13.13;7.45;;;;;;;22.24;51.49;100105.41;5086116;28;20048;-54
2022/05/24 01:09:28;;;;;;;11.20;7.80;;;;;;;22.23;51.44;100098.31;5086935;28;20332;-52
2022/05/24 01:12:06;;;;;;;12.38;8.30;;;;;;;22.21;51.21;100106.63;5086666;28;20048;-53
2022/05/24 01:14:33;;;;;;;14.38;8.43;;;;;;;22.21;51.43;100108.50;5088304;28;20062;-53
2022/05/24 01:17:00;;;;;;;11.57;7.75;;;;;;;22.21;51.56;100103.94;5088464;28;20061;-53
2022/05/24 01:19:43;;;;;;;12.50;7.35;;;;;;;22.19;51.39;100105.97;5087317;28;20050;-51
2022/05/24 01:22:44;;;;;;;14.10;7.55;;;;;;;22.18;51.66;100097.06;5089669;28;20185;-53
2022/05/24 01:25:36;;;;;;;11.10;6.90;;;;;;;22.17;51.44;100103.50;5091032;28;20143;-53
2022/05/24 01:28:19;;;;;;;12.43;6.95;;;;;;;22.16;51.89;100103.69;5085385;28;20052;-54
2022/05/24 01:30:46;;;;;;;11.65;6.95;;;;;;;22.15;51.52;100105.56;5084774;28;20051;-54
2022/05/24 01:36:09;;;;;;;15.32;7.30;;;;;;;22.14;51.71;100116.53;5088737;28;20044;-54
2022/05/24 01:38:47;;;;;;;14.82;7.10;;;;;;;22.13;51.67;100122.97;5085032;28;20740;-54
2022/05/24 01:41:20;;;;;;;11.90;7.22;;;;;;;22.10;51.43;100129.56;5085300;28;20106;-54
2022/05/24 01:43:49;;;;;;;10.18;6.97;;;;;;;22.11;51.57;100127.69;5089487;28;20044;-52
2022/05/24 01:46:19;;;;;;;13.55;6.80;;;;;;;22.09;51.78;100130.59;5084984;28;20071;-54
2022/05/24 01:48:56;;;;;;;12.55;7.00;;;;;;;22.08;51.45;100128.94;5085521;28;20130;-53
2022/05/24 01:51:29;;;;;;;12.23;6.95;;;;;;;22.07;51.55;100127.28;5090459;28;20061;-53
2022/05/24 01:54:01;;;;;;;10.55;6.40;;;;;;;22.07;51.79;100132.69;5087908;28;20046;-54
2022/05/24 01:56:40;;;;;;;9.00;6.03;;;;;;;22.07;51.92;100130.00;5085205;28;20051;-55
2022/05/24 01:59:08;;;;;;;9.73;6.05;;;;;;;22.07;51.60;100135.38;5084768;28;20638;-53
2022/05/24 02:01:47;;;;;;;10.77;5.93;;;;;;;22.04;51.56;100130.38;5088457;28;20047;-54
2022/05/24 02:04:15;;;;;;;12.20;6.22;;;;;;;22.05;51.54;100126.63;5090718;28;20131;-53
2022/05/24 02:06:41;;;;;;;12.48;6.07;;;;;;;22.05;51.81;100126.63;5086806;28;20043;-52
2022/05/24 02:09:10;;;;;;;11.18;6.00;;;;;;;22.04;51.84;100124.97;5087952;28;20050;-52
2022/05/24 02:11:37;;;;;;;8.00;5.25;;;;;;;22.01;51.50;100141.56;5086672;28;20036;-54
2022/05/24 02:14:18;;;;;;;9.00;5.70;;;;;;;22.02;51.77;100131.59;5086357;28;20047;-52
2022/05/24 02:16:53;;;;;;;9.82;5.32;;;;;;;22.00;51.47;100134.50;5085354;28;20331;-53
2022/05/24 02:19:20;;;;;;;8.82;4.95;;;;;;;22.00;51.83;100129.09;5089179;28;20047;-54
2022/05/24 02:21:54;;;;;;;8.38;4.70;;;;;;;21.98;51.53;100131.16;5090222;28;20040;-51
2022/05/24 02:24:23;;;;;;;9.63;5.95;;;;;;;21.98;51.68;100133.84;5089736;28;20072;-54
2022/05/24 02:26:51;;;;;;;9.10;5.05;;;;;;;21.98;51.72;100138.41;5085296;28;20470;-54
2022/05/24 02:29:19;;;;;;;7.60;4.38;;;;;;;21.98;51.46;100138.41;5084448;28;20040;-52
2022/05/24 02:31:46;;;;;;;9.63;5.05;;;;;;;21.96;51.55;100130.53;5087452;28;20332;-53
2022/05/24 02:34:14;;;;;;;8.55;4.85;;;;;;;21.96;51.39;100121.59;5084580;28;20113;-52
2022/05/24 02:36:40;;;;;;;7.47;4.70;;;;;;;21.96;51.66;100116.22;5085639;28;20174;-53
2022/05/24 02:39:07;;;;;;;7.15;4.80;;;;;;;21.95;51.60;100115.38;5086944;28;20040;-52
2022/05/24 02:41:36;;;;;;;9.52;4.95;;;;;;;21.93;51.56;100112.03;5086471;28;20119;-53
2022/05/24 02:44:10;;;;;;;5.80;4.00;;;;;;;21.92;51.40;100104.97;5084224;28;20040;-53
2022/05/24 02:46:40;;;;;;;9.15;5.22;;;;;;;21.92;51.58;100105.81;5089226;28;20133;-52
2022/05/24 02:49:07;;;;;;;11.55;5.10;;;;;;;21.92;51.55;100107.66;5087249;28;20048;-52
2022/05/24 02:51:35;;;;;;;6.63;4.95;;;;;;;21.91;51.49;100119.50;5086990;28;20059;-51
2022/05/24 02:54:02;;;;;;;8.70;4.47;;;;;;;21.91;51.79;100122.19;5086778;28;20052;-52
2022/05/24 02:56:28;;;;;;;8.10;4.30;;;;;;;21.90;51.42;100121.34;5086427;28;20039;-52
2022/05/24 02:58:55;;;;;;;10.20;4.97;;;;;;;21.90;51.81;100117.81;5085948;28;20048;-52
2022/05/24 03:01:26;;;;;;;8.27;4.85;;;;;;;21.90;51.55;100128.59;5088434;28;20494;-53
2022/05/24 03:03:54;;;;;;;8.25;4.60;;;;;;;21.88;51.54;100130.69;5082228;28;20055;-51
2022/05/24 03:06:22;;;;;;;6.35;4.10;;;;;;;21.88;51.45;100128.81;5087509;28;20040;-49
2022/05/24 03:14:22;;;;;;;7.05;4.25;;;;;;;21.85;51.72;100121.09;5087384;28;20072;-53
2022/05/24 03:16:56;;;;;;;7.65;4.45;;;;;;;21.84;51.70;100121.31;5083681;28;20326;-53
2022/05/24 03:19:23;;;;;;;7.65;4.22;;;;;;;21.85;51.85;100125.66;5086024;28;20044;-52
2022/05/24 03:21:50;;;;;;;10.60;5.28;;;;;;;21.83;52.14;100127.72;5088421;28;20044;-53
2022/05/24 03:24:17;;;;;;;7.38;4.15;;;;;;;21.83;51.99;100123.19;5087627;28;20054;-51
2022/05/24 03:26:44;;;;;;;6.72;4.20;;;;;;;21.83;52.06;100141.19;5085147;28;20040;-52
2022/05/24 03:29:11;;;;;;;6.38;4.32;;;;;;;21.83;51.99;100147.47;5086135;28;20067;-52
2022/05/24 03:31:37;;;;;;;7.30;4.03;;;;;;;21.82;52.17;100147.63;5087757;28;20067;-52
2022/05/24 03:34:04;;;;;;;6.68;4.25;;;;;;;21.82;51.25;100163.81;5086886;28;20040;-52
2022/05/24 03:36:31;;;;;;;7.43;4.13;;;;;;;21.80;51.59;100147.84;5085307;28;20144;-53
2022/05/24 03:38:58;;;;;;;6.40;3.72;;;;;;;21.81;51.82;100145.97;5082872;28;20157;-52
2022/05/24 03:41:25;;;;;;;6.03;3.75;;;;;;;21.80;52.15;100136.22;5088272;28;20131;-54
2022/05/24 03:43:52;;;;;;;5.03;3.70;;;;;;;21.80;51.88;100149.72;5085529;28;20135;-52
2022/05/24 03:46:20;;;;;;;7.50;3.92;;;;;;;21.79;51.97;100148.03;5084125;28;20052;-52
2022/05/24 03:48:47;;;;;;;7.30;3.90;;;;;;;21.79;52.19;100153.41;5088604;28;20046;-53
2022/05/24 03:51:13;;;;;;;8.75;4.15;;;;;;;21.78;51.87;100151.75;5090723;28;20162;-53
2022/05/24 03:53:40;;;;;;;7.55;3.85;;;;;;;21.77;51.99;100163.56;5090563;28;20052;-53
2022/05/24 03:56:07;;;;;;;9.57;4.30;;;;;;;21.77;51.95;100163.56;5089337;28;20048;-51
2022/05/24 03:58:34;;;;;;;8.82;3.88;;;;;;;21.77;52.08;100160.88;5087172;28;20056;-51
2022/05/24 04:01:01;;;;;;;5.32;3.55;;;;;;;21.76;52.04;100168.16;5087973;28;20493;-52
2022/05/24 04:03:28;;;;;;;7.38;4.03;;;;;;;21.76;51.63;100175.41;5090895;28;20048;-52
2022/05/24 04:05:54;;;;;;;8.45;3.63;;;;;;;21.75;52.04;100181.81;5088931;28;20051;-53
2022/05/24 04:08:26;;;;;;;6.22;3.60;;;;;;;21.76;51.98;100175.41;5087094;28;20052;-54
2022/05/24 04:11:08;;;;;;;6.63;3.55;;;;;;;21.74;52.03;100174.75;5090734;28;20417;-53
2022/05/24 04:13:37;;;;;;;7.68;3.85;;;;;;;21.74;51.89;100182.84;5086802;28;20431;-50
2022/05/24 04:16:04;;;;;;;5.90;3.53;;;;;;;21.73;51.78;100182.00;5092101;28;20073;-53
2022/05/24 04:18:31;;;;;;;7.20;4.07;;;;;;;21.72;51.85;100182.22;5087397;28;20546;-54
2022/05/24 04:20:58;;;;;;;7.15;3.42;;;;;;;21.69;51.90;100176.16;5089103;28;20123;-53
2022/05/24 04:23:25;;;;;;;6.70;3.80;;;;;;;21.71;51.82;100177.84;5091733;28;20334;-54
2022/05/24 04:25:54;;;;;;;7.78;3.60;;;;;;;21.71;51.82;100180.53;5088127;28;20163;-55
2022/05/24 04:28:22;;;;;;;6.03;3.38;;;;;;;21.69;51.70;100186.13;5088434;28;20093;-54
2022/05/24 04:30:51;;;;;;;7.25;3.30;;;;;;;21.69;51.90;100172.63;5090227;28;20770;-52
2022/05/24 04:33:17;;;;;;;8.73;4.35;;;;;;;21.67;51.89;100182.81;5088129;28;20050;-52
2022/05/24 04:35:44;;;;;;;9.57;3.92;;;;;;;21.67;51.92;100183.63;5087811;28;20451;-54
2022/05/24 04:38:11;;;;;;;7.78;3.85;;;;;;;21.67;51.50;100183.63;5081559;28;20304;-54
2022/05/24 04:43:23;;;;;;;7.25;3.63;;;;;;;21.66;51.68;100181.94;5086407;28;21161;-52
2022/05/24 04:45:53;;;;;;;6.57;3.20;;;;;;;21.65;51.92;100172.19;5088483;28;20082;-52
2022/05/24 04:48:21;;;;;;;6.43;3.55;;;;;;;21.66;51.43;100178.41;5090081;28;20044;-53
2022/05/24 04:50:55;;;;;;;10.73;4.20;;;;;;;21.64;51.40;100173.22;5086220;28;20064;-54
2022/05/24 04:53:23;;;;;;;5.65;3.20;;;;;;;21.64;51.61;100177.78;5083967;28;20050;-52
2022/05/24 04:55:50;;;;;;;5.95;3.60;;;;;;;21.63;51.83;100176.13;5086829;28;20062;-54
2022/05/24 04:58:17;;;;;;;6.00;3.30;;;;;;;21.62;51.45;100186.06;5080614;28;20083;-54
2022/05/24 05:00:45;;;;;;;8.90;3.33;;;;;;;21.62;52.10;100196.84;5085096;28;20547;-52
2022/05/24 05:03:14;;;;;;;6.47;3.50;;;;;;;21.62;51.93;100191.44;5087621;28;20063;-53
2022/05/24 05:05:41;;;;;;;7.88;3.13;;;;;;;21.62;51.54;100196.84;5092092;28;20099;-53
2022/05/24 05:08:08;;;;;;;8.38;3.10;;;;;;;21.62;51.54;100207.63;5086764;28;20106;-52
2022/05/24 05:10:34;;;;;;;9.00;3.10;;;;;;;21.61;51.69;100211.38;5087427;28;20048;-53
2022/05/24 05:13:01;;;;;;;7.32;3.38;;;;;;;21.61;51.50;100218.63;5089681;28;20039;-51
2022/05/24 05:15:28;;;;;;;8.68;3.22;;;;;;;21.61;51.75;100213.22;5092366;28;20453;-53
2022/05/24 05:18:06;;;;;;;5.88;3.45;;;;;;;21.60;51.25;100231.28;5088995;28;20042;-49
2022/05/24 05:20:38;;;;;;;6.90;3.03;;;;;;;21.60;51.56;100236.66;5085260;28;20052;-53
2022/05/24 05:23:06;;;;;;;6.38;2.55;;;;;;;21.60;51.46;100231.28;5089256;28;20059;-53
2022/05/24 05:25:33;;;;;;;6.97;2.90;;;;;;;21.59;51.22;100236.88;5090832;28;20048;-53
2022/05/24 05:28:00;;;;;;;6.75;3.03;;;;;;;21.59;51.33;100240.41;5088295;28;20048;-52
2022/05/24 05:33:12;;;;;;;7.13;2.90;;;;;;;21.60;51.41;100246.63;5085637;28;20057;-52
2022/05/24 05:35:39;;;;;;;6.70;2.70;;;;;;;21.60;51.21;100243.94;5086082;28;20439;-52
2022/05/24 05:38:09;;;;;;;4.40;2.50;;;;;;;21.60;51.41;100249.31;5086405;28;20057;-51
2022/05/24 05:40:35;;;;;;;7.40;2.75;;;;;;;21.59;51.38;100251.19;5090186;28;20050;-51
2022/05/24 05:43:02;;;;;;;5.90;2.70;;;;;;;21.58;51.29;100252.19;5071573;28;20070;-54
2022/05/24 05:45:29;;;;;;;4.38;2.00;;;;;;;21.57;51.47;100253.22;5089344;28;20074;-53
2022/05/24 05:47:56;;;;;;;6.03;2.72;;;;;;;21.59;51.34;100261.97;5088770;28;20377;-53
2022/05/24 05:50:22;;;;;;;4.18;2.58;;;;;;;21.58;51.38;100256.75;5089908;28;20050;-53
2022/05/24 05:52:50;;;;;;;3.70;2.38;;;;;;;21.58;51.18;100260.28;5088371;28;20147;-53
2022/05/24 05:55:20;;;;;;;5.57;2.55;;;;;;;21.58;51.61;100257.59;5088971;28;20804;-51
2022/05/24 05:57:47;;;;;;;4.95;2.22;;;;;;;21.58;51.55;100260.28;5087852;28;20126;-52
2022/05/24 06:00:15;;;;;;;7.85;2.95;;;;;;;21.58;51.05;100259.44;5089528;28;20139;-52
2022/05/24 06:02:41;;;;;;;7.25;2.30;;;;;;;21.56;51.26;100267.75;5087218;28;20131;-52
2022/05/24 06:05:10;;;;;;;6.10;2.25;;;;;;;21.56;51.08;100273.13;5084774;28;20139;-53
2022/05/24 06:07:37;;;;;;;6.60;2.47;;;;;;;21.57;51.63;100279.38;5083267;28;20043;-52
2022/05/24 06:10:07;;;;;;;6.07;2.47;;;;;;;21.55;51.21;100282.25;5086504;28;20044;-49
2022/05/24 06:12:34;;;;;;;5.22;2.40;;;;;;;21.53;50.94;100292.38;5082618;28;20072;-50
2022/05/24 06:15:00;;;;;;;6.97;2.22;;;;;;;21.53;51.09;100284.31;5089061;28;20071;-51
2022/05/24 06:17:28;;;;;;;6.38;2.20;;;;;;;21.53;50.96;100286.16;5087802;28;20089;-54
2022/05/24 06:19:58;;;;;;;6.15;2.40;;;;;;;21.53;50.85;100289.69;5086947;28;20052;-51
2022/05/24 06:22:24;;;;;;;5.47;2.33;;;;;;;21.53;51.29;100294.25;5089653;28;20070;-52
2022/05/24 06:24:51;;;;;;;4.18;2.05;;;;;;;21.53;51.26;100299.66;5085405;28;20152;-51
2022/05/24 06:27:20;;;;;;;4.70;2.30;;;;;;;21.52;50.81;100300.69;5082507;28;20055;-50
2022/05/24 06:29:47;;;;;;;5.55;2.47;;;;;;;21.53;50.65;100300.47;5079681;28;20512;-49
2022/05/24 06:32:14;;;;;;;4.15;2.17;;;;;;;21.53;50.72;100297.78;5084141;28;20050;-49
2022/05/24 06:34:40;;;;;;;7.78;2.33;;;;;;;21.56;50.90;100297.41;5086802;28;20062;-51
2022/05/24 06:37:07;;;;;;;5.88;2.60;;;;;;;21.54;51.11;100288.66;5086570;28;20037;-52
2022/05/24 06:39:34;;;;;;;10.40;2.47;;;;;;;21.58;51.07;100297.22;5087062;28;20047;-50
2022/05/24 06:42:00;;;;;;;6.38;2.13;;;;;;;21.58;50.94;100298.03;5082726;28;20058;-52
2022/05/24 06:44:27;;;;;;;6.32;2.53;;;;;;;21.60;50.83;100293.31;5081325;28;20060;-52
2022/05/24 06:46:54;;;;;;;6.82;2.70;;;;;;;21.62;50.87;100298.50;5085306;28;20085;-51
2022/05/24 06:49:21;;;;;;;10.05;4.05;;;;;;;21.63;50.67;100305.59;5085680;28;21152;-53
2022/05/24 06:51:47;;;;;;;13.93;5.07;;;;;;;21.63;51.11;100302.88;5089244;28;20042;-52
2022/05/24 06:54:14;;;;;;;28.42;6.18;;;;;;;21.64;51.14;100318.03;5085115;28;20074;-51
2022/05/24 06:56:41;;;;;;;16.17;5.55;;;;;;;21.65;50.89;100317.84;5087056;28;20138;-53
2022/05/24 07:04:38;;;;;;;22.88;6.50;;;;;;;21.67;51.07;100325.75;5082934;28;20123;-54
2022/05/24 07:07:06;;;;;;;18.30;5.55;;;;;;;21.66;50.08;100327.59;5081541;28;20036;-52
2022/05/24 07:09:33;;;;;;;15.60;5.43;;;;;;;21.67;49.97;100339.25;5088305;28;20044;-52
2022/05/24 07:12:01;;;;;;;19.58;5.68;;;;;;;21.67;50.12;100337.38;5088149;28;20771;-53
2022/05/24 07:14:28;;;;;;;15.27;4.93;;;;;;;21.67;50.26;100345.47;5087825;28;20042;-52
2022/05/24 07:16:54;;;;;;;17.95;5.38;;;;;;;21.65;49.83;100336.72;5087143;28;20130;-52
2022/05/24 07:19:23;;;;;;;22.33;6.28;;;;;;;21.65;50.48;100346.66;5084566;28;20048;-53
2022/05/24 07:21:49;;;;;;;16.63;6.22;;;;;;;21.64;49.85;100351.22;5089650;28;20131;-53
2022/05/24 07:24:16;;;;;;;17.55;6.20;;;;;;;21.64;50.23;100364.72;5090344;28;20052;-54
2022/05/24 07:26:43;;;;;;;14.88;5.30;;;;;;;21.64;49.99;100353.94;5092770;28;20044;-54
2022/05/24 07:29:20;;;;;;;19.52;6.40;;;;;;;21.65;50.48;100363.69;5088201;28;20426;-53
2022/05/24 07:31:46;;;;;;;15.00;6.65;;;;;;;21.65;50.49;100363.69;5091536;28;20058;-54
2022/05/24 07:34:13;;;;;;;17.55;6.75;;;;;;;21.68;50.57;100373.28;5091570;28;20109;-53
2022/05/24 07:36:39;;;;;;;17.13;7.55;;;;;;;21.69;51.15;100375.78;5093564;28;20127;-53
2022/05/24 07:39:06;;;;;;;17.95;7.80;;;;;;;21.72;50.46;100377.25;5092630;28;20131;-53
2022/05/24 07:47:26;;;;;;;16.27;7.43;;;;;;;21.80;50.52;100395.19;5093208;28;20450;-53
2022/05/24 07:49:52;;;;;;;15.85;7.18;;;;;;;21.79;50.50;100397.06;5088249;28;20044;-54
2022/05/24 07:52:19;;;;;;;16.40;7.15;;;;;;;21.79;50.47;100396.19;5083515;28;20127;-52
2022/05/24 07:54:46;;;;;;;15.57;7.25;;;;;;;21.79;50.63;100399.78;5089293;28;20056;-52
2022/05/24 07:57:13;;;;;;;13.48;6.82;;;;;;;21.78;50.35;100416.13;5089000;28;20044;-53
2022/05/24 07:59:42;;;;;;;17.77;7.13;;;;;;;21.77;50.20;100409.06;5079781;28;20056;-53
2022/05/24 08:02:09;;;;;;;17.20;7.00;;;;;;;21.75;50.37;100414.66;5087972;28;20481;-55
2022/05/24 08:04:39;;;;;;;20.20;7.60;;;;;;;21.75;50.15;100424.59;5089396;28;20134;-55
2022/05/24 08:07:06;;;;;;;15.10;7.28;;;;;;;21.74;50.30;100420.22;5087129;28;20055;-54
2022/05/24 08:09:33;;;;;;;13.68;6.97;;;;;;;21.74;50.57;100431.84;5087780;28;20420;-55
2022/05/24 08:11:59;;;;;;;16.20;7.82;;;;;;;21.73;50.94;100435.56;5087906;28;20059;-53
2022/05/24 08:14:26;;;;;;;18.27;8.32;;;;;;;21.73;50.51;100432.03;5089796;28;20090;-51
2022/05/24 08:16:53;;;;;;;17.98;7.90;;;;;;;21.74;50.80;100429.16;5087996;28;20387;-53
2022/05/24 08:19:19;;;;;;;15.27;8.20;;;;;;;21.76;50.52;100434.38;5085510;28;20040;-53
2022/05/24 08:21:46;;;;;;;16.58;8.85;;;;;;;21.77;50.68;100430.66;5088520;28;20142;-52
2022/05/24 08:24:13;;;;;;;18.63;9.05;;;;;;;21.80;50.98;100432.97;5087220;28;20377;-54
2022/05/24 08:26:39;;;;;;;18.38;10.50;;;;;;;21.82;50.61;100422.81;5087545;28;20135;-53
2022/05/24 08:29:06;;;;;;;20.50;10.80;;;;;;;21.85;50.57;100420.56;5085569;28;20054;-54
2022/05/24 08:31:32;;;;;;;16.58;9.38;;;;;;;21.87;50.35;100426.63;5090019;28;20487;-55
2022/05/24 08:33:59;;;;;;;18.27;9.57;;;;;;;21.91;50.35;100429.78;5088170;28;20048;-53
2022/05/24 08:36:26;;;;;;;16.40;9.13;;;;;;;21.92;50.17;100431.47;5089526;28;20138;-51
2022/05/24 08:38:53;;;;;;;17.85;9.93;;;;;;;21.92;50.15;100426.91;5088661;28;20070;-52
2022/05/24 08:41:30;;;;;;;17.25;9.45;;;;;;;21.94;50.08;100432.91;5085904;28;20044;-54
2022/05/24 08:49:56;;;;;;;14.65;8.40;;;;;;;21.92;49.62;100456.56;5088582;28;20139;-50
2022/05/24 08:52:30;;;;;;;19.83;9.52;;;;;;;21.93;49.95;100452.84;5088313;28;20091;-50
2022/05/24 08:54:58;;;;;;;16.58;8.60;;;;;;;21.93;50.01;100458.25;5088022;28;20051;-54
2022/05/24 08:57:42;;;;;;;14.30;8.98;;;;;;;21.96;50.33;100446.25;5088963;28;20047;-54
2022/05/24 09:00:13;;;;;;;14.00;7.57;;;;;;;21.99;50.06;100458.50;5089426;28;20080;-53
2022/05/24 09:02:45;;;;;;;13.60;8.10;;;;;;;21.98;49.87;100464.94;5088258;28;20047;-52
2022/05/24 09:05:38;;;;;;;14.30;8.38;;;;;;;21.96;49.73;100475.09;5083761;28;20415;-54
2022/05/24 09:08:14;;;;;;;15.38;8.73;;;;;;;21.94;49.66;100489.59;5089483;28;20155;-52
2022/05/24 09:11:08;;;;;;;16.92;9.55;;;;;;;21.93;49.92;100496.03;5088019;28;20051;-53
2022/05/24 09:14:03;;;;;;;17.55;10.15;;;;;;;21.92;50.19;100499.75;5087287;28;20040;-54
2022/05/24 09:16:39;;;;;;;18.73;10.45;;;;;;;21.92;49.85;100517.81;5090652;28;20040;-55
2022/05/24 09:19:19;;;;;;;16.83;9.98;;;;;;;21.90;50.07;100515.28;5088829;28;20458;-52
2022/05/24 09:21:51;;;;;;;23.88;11.48;;;;;;;21.91;50.24;100505.34;5088751;28;20052;-52
2022/05/24 09:24:22;;;;;;;20.70;9.95;;;;;;;21.91;50.34;100516.97;5089044;28;20050;-51
2022/05/24 09:27:12;;;;;;;21.38;11.65;;;;;;;21.93;50.49;100522.16;5087027;28;20106;-53
2022/05/24 09:29:59;;;;;;;20.05;11.38;;;;;;;21.97;50.39;100517.25;5089277;28;21073;-55
2022/05/24 09:32:30;;;;;;;18.33;10.60;;;;;;;22.01;50.18;100513.97;5089858;28;20052;-54
2022/05/24 09:35:16;;;;;;;19.40;10.40;;;;;;;22.03;50.04;100522.75;5085514;28;20040;-54
2022/05/24 09:38:04;;;;;;;17.40;10.48;;;;;;;22.07;50.00;100532.13;5090012;28;20044;-53
2022/05/24 09:40:45;;;;;;;18.75;11.30;;;;;;;22.10;49.82;100534.44;5086711;28;20067;-53
2022/05/24 09:43:39;;;;;;;20.27;10.75;;;;;;;22.11;49.70;100554.16;5088980;28;20342;-53
2022/05/24 09:46:23;;;;;;;20.25;10.40;;;;;;;22.13;49.58;100563.78;5085819;28;20422;-54
2022/05/24 09:49:18;;;;;;;18.52;10.27;;;;;;;22.13;49.35;100576.44;5088089;28;20048;-54
2022/05/24 09:51:45;;;;;;;16.98;10.30;;;;;;;22.11;49.57;100568.53;5082760;28;20153;-54
2022/05/24 09:54:16;;;;;;;19.10;11.25;;;;;;;22.13;49.81;100571.06;5087991;28;20043;-52
2022/05/24 09:57:08;;;;;;;17.67;10.43;;;;;;;22.13;49.61;100582.69;5088398;28;20047;-53
2022/05/24 09:59:39;;;;;;;18.40;9.80;;;;;;;22.14;49.31;100584.34;5088277;28;20031;-54
2022/05/24 10:02:28;;;;;;;18.35;10.43;;;;;;;22.11;49.33;100590.13;5088901;28;20406;-53
2022/05/24 10:04:55;;;;;;;17.25;9.95;;;;;;;22.09;49.32;100592.16;5087406;28;20082;-53
2022/05/24 10:07:34;;;;;;;18.58;9.38;;;;;;;22.08;49.15;100597.75;5087622;28;20051;-52
2022/05/24 10:10:20;;;;;;;23.42;10.18;;;;;;;22.04;49.49;100608.06;5081304;28;20072;-53
2022/05/24 10:13:04;;;;;;;18.65;10.35;;;;;;;22.03;49.69;100625.28;5082473;28;20483;-50
2022/05/24 10:16:00;;;;;;;23.58;10.68;;;;;;;22.04;49.82;100632.38;5088524;28;20052;-45
2022/05/24 10:18:27;;;;;;;29.80;12.43;;;;;;;22.08;49.89;100633.66;5080975;28;20134;-49
2022/05/24 10:21:21;;;;;;;84.50;34.83;;;;;;;22.10;49.99;100637.00;5085962;28;20491;-53
2022/05/24 10:23:51;;;;;;;51.72;18.58;;;;;;;22.13;49.78;100631.28;5088935;28;20385;-53
2022/05/24 10:26:42;;;;;;;73.65;28.77;;;;;;;22.16;49.87;100630.06;5087133;28;20423;-54
2022/05/24 10:29:41;;;;;;;74.43;23.98;;;;;;;22.21;49.75;100634.91;5068963;28;20083;-56
2022/05/24 10:38:22;;;;;;;86.57;30.13;;;;;;;22.28;49.40;100643.94;5085397;28;20134;-55
2022/05/24 10:41:24;;;;;;;72.63;29.10;;;;;;;22.25;49.59;100647.84;5085795;28;20044;-55
2022/05/24 10:44:03;;;;;;;77.25;29.08;;;;;;;22.25;49.74;100649.72;5088784;28;20044;-54
2022/05/24 10:46:40;;;;;;;81.15;28.50;;;;;;;22.23;49.65;100655.31;5084163;28;20066;-55
2022/05/24 10:49:21;;;;;;;72.75;27.75;;;;;;;22.23;49.70;100649.03;5085069;28;20052;-54
2022/05/24 10:51:57;;;;;;;65.43;26.67;;;;;;;22.27;49.50;100656.63;5086567;28;20048;-54
2022/05/24 10:54:31;;;;;;;58.63;23.73;;;;;;;22.32;49.68;100642.56;5082776;28;20046;-55
2022/05/24 10:57:16;;;;;;;52.70;21.63;;;;;;;22.35;49.48;100637.63;5086810;28;20466;-56
2022/05/24 10:59:59;;;;;;;52.10;23.38;;;;;;;22.40;49.49;100642.44;5086557;28;20144;-56
2022/05/24 11:02:44;;;;;;;50.85;21.63;;;;;;;22.44;49.80;100643.75;5084758;28;20055;-56
2022/05/24 11:05:20;;;;;;;47.13;22.02;;;;;;;22.47;49.64;100643.34;5086706;28;20044;-55
2022/05/24 11:07:50;;;;;;;46.70;20.00;;;;;;;22.50;49.51;100639.44;5087665;28;20056;-53
2022/05/24 11:10:30;;;;;;;43.08;19.67;;;;;;;22.52;49.43;100648.22;5087992;28;20082;-54
2022/05/24 11:13:03;;;;;;;52.95;18.55;;;;;;;22.55;49.28;100648.69;5081730;28;20127;-51
2022/05/24 11:15:39;;;;;;;47.97;17.65;;;;;;;22.57;49.38;100649.31;5086031;28;20047;-51
2022/05/24 11:18:21;;;;;;;53.17;17.73;;;;;;;22.58;50.68;100656.38;5089497;28;20040;-53
2022/05/24 11:20:54;;;;;;;41.90;17.17;;;;;;;22.60;50.46;100665.16;5081013;28;20078;-54
2022/05/24 11:23:27;;;;;;;36.35;17.05;;;;;;;22.60;50.51;100653.50;5084741;28;20178;-54
2022/05/24 11:26:20;;;;;;;28.35;14.13;;;;;;;22.61;50.87;100674.09;5086270;28;20039;-54
2022/05/24 11:28:53;;;;;;;30.13;15.50;;;;;;;22.61;50.79;100661.41;5083726;28;20162;-53
2022/05/24 11:31:44;;;;;;;38.47;15.60;;;;;;;22.60;51.13;100670.56;5086912;28;20051;-54
2022/05/24 11:34:24;;;;;;;32.45;14.85;;;;;;;22.61;50.93;100674.09;5083882;28;20041;-53
2022/05/24 11:37:27;;;;;;;33.33;15.40;;;;;;;22.59;51.26;100681.53;5088141;28;20118;-53
2022/05/24 11:39:54;;;;;;;30.95;15.35;;;;;;;22.58;51.34;100683.41;5085056;28;20051;-51
2022/05/24 11:42:34;;;;;;;30.98;15.82;;;;;;;22.58;51.02;100683.41;5084848;28;20054;-52
2022/05/24 11:45:29;;;;;;;28.55;15.10;;;;;;;22.57;51.44;100689.00;5085354;28;20134;-54
2022/05/24 11:47:59;;;;;;;31.58;13.95;;;;;;;22.57;51.25;100700.63;5084068;28;20158;-53
2022/05/24 11:50:31;;;;;;;30.70;14.02;;;;;;;22.56;51.42;100690.88;5087885;28;20479;-56
2022/05/24 11:53:19;;;;;;;38.80;13.63;;;;;;;22.56;50.98;100681.94;5086692;28;20139;-52
2022/05/24 11:55:53;;;;;;;31.55;14.40;;;;;;;22.55;51.11;100700.00;5084775;28;20197;-54
2022/05/24 11:58:20;;;;;;;28.40;14.23;;;;;;;22.55;51.02;100705.41;5087638;28;20044;-53
2022/05/24 12:01:16;;;;;;;33.40;13.13;;;;;;;22.55;51.65;100704.53;5087047;28;20082;-56
2022/05/24 12:10:25;;;;;;;25.23;12.65;;;;;;;22.57;51.54;100703.34;5054485;28;20048;-54
2022/05/24 12:13:03;;;;;;;26.77;12.52;;;;;;;22.56;51.34;100709.78;5091218;28;20040;-56
2022/05/24 12:15:30;;;;;;;26.33;11.15;;;;;;;22.56;51.39;100715.19;5090345;28;20729;-54
2022/05/24 12:17:59;;;;;;;23.50;11.05;;;;;;;22.56;51.42;100725.16;5088541;28;20047;-56
2022/05/24 12:20:35;;;;;;;23.45;11.10;;;;;;;22.56;51.29;100722.44;5087604;28;20424;-56
2022/05/24 12:23:04;;;;;;;18.90;10.60;;;;;;;22.57;51.53;100722.25;5092624;28;20125;-56